Portada
METAR-TAF:

METAR-TAF

Aeropuertos :

Iowa County Airport

Mineral Point, Wisconsin, Estados Unidos

latitud: 42-53-07N, longitud: 090-13-55W, altitud: 359 m

Observación

El informe se hizo hace 21 minutos, a las 04:15 UTC
Viento 5 kt del norte
Temperatura 7°C
Humedad 57%
Presión 1024 hPa
Visibilidad: 16.1 km
Cielo despejado

METAR: KMRJ 110415Z AUTO 01005KT 10SM CLR 07/M01 A3023 RMK AO2

Hora: 23:36 (04:36 UTC)


TAF: falta

Observaciones y pronósticos meteorológicos de más de 4000 aeropuertos (mensajes METAR y TAF).

Los puntos amarillos y rojos representan las estaciones disponibles.

Ponga el ratón en el punto deseado para ver el nombre de la estación.

Haga clic para ver las observaciones y los pronósticos meteorológicos.

Para cambiar el mapa : haga clic en los botones verdes con una cruz de color negro para hacer un zoom, en el botón verde con un guión para alejar o en las flechas verdes para mapas adyacentes.


METAR-TAF: